createdAt,value
2022-10-30T00:01:05.168Z,99.90
2022-10-30T00:03:36.253Z,99.90
2022-10-30T00:06:07.498Z,99.90
2022-10-30T00:08:35.921Z,99.90
2022-10-30T00:11:08.459Z,99.90
2022-10-30T00:13:37.664Z,99.90
2022-10-30T00:16:09.022Z,99.90
2022-10-30T00:18:38.632Z,99.90
2022-10-30T00:21:10.001Z,99.90
2022-10-30T00:23:38.223Z,99.90
2022-10-30T00:26:07.636Z,99.90
2022-10-30T00:28:36.385Z,99.90
2022-10-30T00:31:05.753Z,99.90
2022-10-30T00:33:34.019Z,99.90
2022-10-30T00:36:02.686Z,99.90
2022-10-30T00:38:33.188Z,99.90
2022-10-30T00:41:01.380Z,99.90
2022-10-30T00:43:35.898Z,99.90
2022-10-30T00:46:19.356Z,99.90
2022-10-30T00:48:52.097Z,99.90
2022-10-30T00:51:20.553Z,99.90
2022-10-30T00:53:51.068Z,99.90
2022-10-30T00:56:21.504Z,99.90
2022-10-30T00:58:55.042Z,99.90
2022-10-30T01:01:27.072Z,99.90
2022-10-30T01:03:59.071Z,99.90
2022-10-30T01:06:29.335Z,99.90
2022-10-30T01:09:00.197Z,99.90
2022-10-30T01:11:28.714Z,99.90
2022-10-30T01:13:59.223Z,99.90
2022-10-30T01:16:51.094Z,99.90
2022-10-30T01:19:26.719Z,99.90
2022-10-30T01:22:12.434Z,99.90
2022-10-30T01:24:52.021Z,99.90
2022-10-30T01:27:33.903Z,99.90
2022-10-30T01:30:11.749Z,99.90
2022-10-30T01:32:50.408Z,99.90
2022-10-30T01:35:25.024Z,99.90
2022-10-30T01:37:59.354Z,99.90
2022-10-30T01:40:29.488Z,99.90
2022-10-30T01:42:58.788Z,99.90
2022-10-30T01:45:42.268Z,99.90
2022-10-30T01:48:32.766Z,99.90
2022-10-30T01:51:07.350Z,99.90
2022-10-30T01:53:47.181Z,99.90
2022-10-30T01:56:27.879Z,99.90
2022-10-30T01:59:04.309Z,99.90
2022-10-30T02:01:35.685Z,99.90
2022-10-30T02:04:05.143Z,99.90
2022-10-30T02:06:33.393Z,99.90
2022-10-30T02:09:01.504Z,99.90
2022-10-30T02:11:33.155Z,99.90
2022-10-30T02:14:04.105Z,99.90
2022-10-30T02:16:34.615Z,99.90
2022-10-30T02:19:03.442Z,99.90
2022-10-30T02:21:33.025Z,99.90
2022-10-30T02:24:01.165Z,99.90
2022-10-30T02:26:29.268Z,99.90
2022-10-30T02:28:57.512Z,99.90
2022-10-30T02:31:25.679Z,99.90
2022-10-30T02:33:53.948Z,99.90
2022-10-30T02:36:22.087Z,99.90
2022-10-30T02:38:51.633Z,99.90
2022-10-30T02:41:19.859Z,99.90
2022-10-30T02:43:51.099Z,99.90
2022-10-30T02:46:19.252Z,99.90
2022-10-30T02:48:47.374Z,99.90
2022-10-30T02:51:15.538Z,99.90
2022-10-30T02:53:43.754Z,99.90
2022-10-30T02:56:14.840Z,99.90
2022-10-30T02:58:43.441Z,99.90
2022-10-30T03:01:13.468Z,99.90
2022-10-30T03:03:42.122Z,99.90
2022-10-30T03:06:12.108Z,99.90
2022-10-30T03:08:40.198Z,99.90
2022-10-30T03:11:10.774Z,99.90
2022-10-30T03:13:41.722Z,99.90
2022-10-30T03:16:12.175Z,99.90
2022-10-30T03:18:40.497Z,99.90
2022-10-30T03:21:11.583Z,99.90
2022-10-30T03:23:39.884Z,99.90
2022-10-30T03:26:08.344Z,99.90
2022-10-30T03:28:36.576Z,99.90
2022-10-30T03:31:08.242Z,99.90
2022-10-30T03:33:37.260Z,99.90
2022-10-30T03:36:06.408Z,99.90
2022-10-30T03:38:34.730Z,99.90
2022-10-30T03:41:06.602Z,99.90
2022-10-30T03:43:36.274Z,99.90
2022-10-30T03:46:30.860Z,99.90
2022-10-30T03:48:59.015Z,99.90
2022-10-30T03:51:27.120Z,99.90
2022-10-30T03:53:55.312Z,99.90
2022-10-30T03:56:23.496Z,99.90
2022-10-30T03:58:52.445Z,99.90
2022-10-30T04:01:21.011Z,99.90
2022-10-30T04:03:52.836Z,99.90
2022-10-30T04:06:21.181Z,99.90
2022-10-30T04:08:52.494Z,99.90
2022-10-30T04:11:21.143Z,99.90
2022-10-30T04:13:49.425Z,99.90
2022-10-30T04:16:17.510Z,99.90
2022-10-30T04:18:45.630Z,99.90
2022-10-30T04:21:15.044Z,99.90
2022-10-30T04:23:43.105Z,99.90
2022-10-30T04:26:11.191Z,99.90
2022-10-30T04:28:39.192Z,99.90
2022-10-30T04:31:07.855Z,99.90
2022-10-30T04:33:35.899Z,99.90
2022-10-30T04:36:03.852Z,99.90
2022-10-30T04:38:33.208Z,99.90
2022-10-30T04:41:01.149Z,99.90
2022-10-30T04:43:29.272Z,99.90
2022-10-30T04:45:57.421Z,99.90
2022-10-30T04:48:25.626Z,99.90
2022-10-30T04:50:53.723Z,99.90
2022-10-30T04:53:22.018Z,99.90
2022-10-30T04:55:55.026Z,99.90
2022-10-30T04:58:23.066Z,99.90
2022-10-30T05:00:51.049Z,99.90
2022-10-30T05:03:21.573Z,99.90
2022-10-30T05:05:56.682Z,99.90
2022-10-30T05:08:25.405Z,99.90
2022-10-30T05:11:09.982Z,99.90
2022-10-30T05:13:38.174Z,99.90
2022-10-30T05:16:06.896Z,99.90
2022-10-30T05:18:35.667Z,99.90
2022-10-30T05:21:03.845Z,99.90
2022-10-30T05:23:32.084Z,99.90
2022-10-30T05:26:01.496Z,99.90
2022-10-30T05:28:31.146Z,99.90
2022-10-30T05:30:59.812Z,99.90
2022-10-30T05:33:31.393Z,99.90
2022-10-30T05:36:00.104Z,99.90
2022-10-30T05:38:28.535Z,99.90
2022-10-30T05:40:57.502Z,99.90
2022-10-30T05:43:25.956Z,99.90
2022-10-30T05:45:56.027Z,99.90
2022-10-30T05:48:24.203Z,99.90
2022-10-30T05:50:53.524Z,99.90
2022-10-30T05:53:25.025Z,99.90
2022-10-30T05:55:57.004Z,99.90
2022-10-30T05:58:26.118Z,99.90
2022-10-30T06:00:56.934Z,99.90
2022-10-30T06:03:25.216Z,99.90
2022-10-30T06:05:53.455Z,99.90
2022-10-30T06:08:21.842Z,99.90
2022-10-30T06:10:50.181Z,99.90
2022-10-30T06:13:18.305Z,99.90
2022-10-30T06:15:46.866Z,99.90
2022-10-30T06:18:16.363Z,99.90
2022-10-30T06:20:46.044Z,99.90
2022-10-30T06:23:14.375Z,99.90
2022-10-30T06:25:42.780Z,99.90
2022-10-30T06:28:13.796Z,99.90
2022-10-30T06:30:42.075Z,99.90
2022-10-30T06:33:11.316Z,99.90
2022-10-30T06:35:40.921Z,99.90
2022-10-30T06:38:12.164Z,99.90
2022-10-30T06:40:48.085Z,99.90
2022-10-30T06:43:18.899Z,99.90
2022-10-30T06:45:47.099Z,99.90
2022-10-30T06:48:15.195Z,99.90
2022-10-30T06:50:44.790Z,99.90
2022-10-30T06:53:12.891Z,99.90
2022-10-30T06:55:40.981Z,99.90
2022-10-30T06:58:09.088Z,99.90
2022-10-30T07:00:37.194Z,99.90
2022-10-30T07:03:07.881Z,99.90
2022-10-30T07:05:35.884Z,99.90
2022-10-30T07:08:05.614Z,99.90
2022-10-30T07:10:33.809Z,99.90
2022-10-30T07:13:02.332Z,99.90
2022-10-30T07:15:30.704Z,99.90
2022-10-30T07:18:00.793Z,99.90
2022-10-30T07:20:30.888Z,99.90
2022-10-30T07:22:58.955Z,99.90
2022-10-30T07:25:31.945Z,99.90
2022-10-30T07:28:02.287Z,99.90
2022-10-30T07:30:30.529Z,99.90
2022-10-30T07:33:00.975Z,99.90
2022-10-30T07:35:30.786Z,99.90
2022-10-30T07:38:04.272Z,99.90
2022-10-30T07:40:34.379Z,99.90
2022-10-30T07:43:04.368Z,99.90
2022-10-30T07:45:35.621Z,99.90
2022-10-30T07:48:03.945Z,99.90
2022-10-30T07:50:32.083Z,99.90
2022-10-30T07:53:00.577Z,99.90
2022-10-30T07:55:33.460Z,99.90
2022-10-30T08:01:31.399Z,99.90
2022-10-30T08:03:59.987Z,99.90
2022-10-30T08:06:29.365Z,99.90
2022-10-30T08:09:16.516Z,99.90
2022-10-30T08:11:48.512Z,99.90
2022-10-30T08:14:16.981Z,99.90
2022-10-30T08:16:45.600Z,99.90
2022-10-30T08:19:13.800Z,99.90
2022-10-30T08:21:42.093Z,99.90
2022-10-30T08:24:10.623Z,99.90
2022-10-30T08:26:38.813Z,99.90
2022-10-30T08:29:08.460Z,99.90
2022-10-30T08:31:36.795Z,99.90
2022-10-30T08:34:05.480Z,99.90
2022-10-30T08:36:37.907Z,99.90
2022-10-30T08:39:08.395Z,99.90
2022-10-30T08:41:36.644Z,99.90
2022-10-30T08:44:06.424Z,99.90
2022-10-30T08:46:38.192Z,99.90
2022-10-30T08:49:06.842Z,99.90
2022-10-30T08:51:36.525Z,99.90
2022-10-30T08:54:05.490Z,99.90
2022-10-30T08:56:33.820Z,99.90
2022-10-30T08:59:02.144Z,99.90
2022-10-30T09:01:30.310Z,99.90
2022-10-30T09:03:59.969Z,99.90
2022-10-30T09:06:29.394Z,99.90
2022-10-30T09:09:00.914Z,99.90
2022-10-30T09:11:29.438Z,99.90
2022-10-30T09:13:57.627Z,99.90
2022-10-30T09:16:25.823Z,99.90
2022-10-30T09:18:54.139Z,99.90
2022-10-30T09:21:23.785Z,99.90
2022-10-30T09:23:51.945Z,99.90
2022-10-30T09:26:21.114Z,99.90
2022-10-30T09:28:49.801Z,99.90
2022-10-30T09:31:18.926Z,99.90
2022-10-30T09:33:47.216Z,99.90
2022-10-30T09:36:18.056Z,99.90
2022-10-30T09:38:51.103Z,99.90
2022-10-30T09:41:38.380Z,99.90
2022-10-30T09:44:20.465Z,99.90
2022-10-30T09:47:02.293Z,99.90
2022-10-30T09:49:45.633Z,99.90
2022-10-30T09:52:26.942Z,99.70
2022-10-30T09:55:17.052Z,99.60
2022-10-30T09:57:51.864Z,99.90
2022-10-30T10:00:22.673Z,99.90
2022-10-30T10:03:00.355Z,99.90
2022-10-30T10:05:33.820Z,99.90
2022-10-30T10:08:06.297Z,99.90
2022-10-30T10:10:40.805Z,99.90
2022-10-30T10:13:28.550Z,99.90
2022-10-30T10:16:00.956Z,99.90
2022-10-30T10:18:34.430Z,99.90
2022-10-30T10:21:10.362Z,99.90
2022-10-30T10:23:47.707Z,99.90
2022-10-30T10:26:28.917Z,99.90
2022-10-30T10:29:20.981Z,99.90
2022-10-30T10:32:01.758Z,99.40
2022-10-30T10:34:52.743Z,98.70
2022-10-30T10:37:31.866Z,99.60
2022-10-30T10:40:17.494Z,99.90
2022-10-30T10:42:57.297Z,99.90
2022-10-30T10:45:34.030Z,99.90
2022-10-30T10:48:19.028Z,99.70
2022-10-30T10:50:50.901Z,99.20
2022-10-30T10:53:25.835Z,98.90
2022-10-30T10:55:58.396Z,98.70
2022-10-30T10:58:30.679Z,98.70
2022-10-30T11:00:59.952Z,98.80
2022-10-30T11:03:40.195Z,98.60
2022-10-30T11:06:21.184Z,97.80
2022-10-30T11:08:50.490Z,97.30
2022-10-30T11:11:18.646Z,96.60
2022-10-30T11:13:50.841Z,96.90
2022-10-30T11:16:28.669Z,97.10
2022-10-30T11:19:01.832Z,96.60
2022-10-30T11:21:34.053Z,96.10
2022-10-30T11:24:02.358Z,95.70
2022-10-30T12:46:22.967Z,96.70
2022-10-30T12:57:34.818Z,95.80
2022-10-30T13:00:07.952Z,95.60
2022-10-30T13:02:56.161Z,96.00
2022-10-30T13:05:34.408Z,94.70
2022-10-30T13:08:17.024Z,92.90
2022-10-30T13:10:51.033Z,93.10
2022-10-30T13:13:23.173Z,91.50
2022-10-30T13:15:54.204Z,92.90
2022-10-30T13:18:25.258Z,94.00
2022-10-30T13:21:18.141Z,93.80
2022-10-30T13:23:49.795Z,94.50
2022-10-30T13:26:25.149Z,94.50
2022-10-30T13:28:58.884Z,94.00
2022-10-30T13:31:36.293Z,93.70
2022-10-30T13:34:17.371Z,94.50
2022-10-30T13:36:51.895Z,95.30
2022-10-30T13:39:28.646Z,95.20
2022-10-30T13:42:11.591Z,95.20
2022-10-30T13:44:52.117Z,96.30
2022-10-30T13:47:32.238Z,96.80
2022-10-30T13:50:18.727Z,97.00
2022-10-30T13:52:53.951Z,96.70
2022-10-30T13:55:26.777Z,96.00
2022-10-30T13:58:03.028Z,95.90
2022-10-30T14:00:49.173Z,96.20
2022-10-30T14:03:29.935Z,96.20
2022-10-30T14:06:08.313Z,95.60
2022-10-30T14:08:42.284Z,96.00
2022-10-30T14:11:14.403Z,96.30
2022-10-30T14:13:54.678Z,96.70
2022-10-30T14:16:35.718Z,96.30
2022-10-30T14:19:05.320Z,96.80
2022-10-30T14:21:54.710Z,97.60
2022-10-30T14:24:24.549Z,98.00
2022-10-30T14:26:55.921Z,98.40
2022-10-30T14:29:48.940Z,99.00
2022-10-30T14:32:47.560Z,99.60
2022-10-30T14:35:34.569Z,99.90
2022-10-30T14:38:27.500Z,99.90
2022-10-30T14:41:12.873Z,99.90
2022-10-30T14:43:51.529Z,99.90
2022-10-30T14:46:26.627Z,99.90
2022-10-30T14:49:10.449Z,99.90
2022-10-30T14:51:43.411Z,99.90
2022-10-30T14:54:22.886Z,99.90
2022-10-30T14:56:52.744Z,99.90
2022-10-30T14:59:32.166Z,99.90
2022-10-30T15:02:19.778Z,99.90
2022-10-30T15:05:12.775Z,99.90
2022-10-30T15:07:45.063Z,99.90
2022-10-30T15:10:23.726Z,99.90
2022-10-30T15:13:17.072Z,99.90
2022-10-30T15:15:46.512Z,99.90
2022-10-30T15:18:19.175Z,99.90
2022-10-30T15:20:51.983Z,99.90
2022-10-30T15:23:24.295Z,99.90
2022-10-30T15:25:55.669Z,99.90
2022-10-30T15:28:27.568Z,99.90
2022-10-30T15:31:03.430Z,99.90
2022-10-30T15:33:32.945Z,99.90
2022-10-30T15:36:01.399Z,99.90
2022-10-30T15:38:29.513Z,99.90
2022-10-30T15:41:02.230Z,99.90
2022-10-30T15:43:35.309Z,99.90
2022-10-30T15:46:09.461Z,99.90
2022-10-30T15:48:41.248Z,99.90
2022-10-30T15:51:15.049Z,99.90
2022-10-30T15:53:47.636Z,99.90
2022-10-30T15:56:20.926Z,99.90
2022-10-30T15:58:54.314Z,99.90
2022-10-30T16:01:26.986Z,99.90
2022-10-30T16:03:55.650Z,99.90
2022-10-30T16:06:27.507Z,99.90
2022-10-30T16:08:55.907Z,99.90
2022-10-30T16:11:26.977Z,99.90
2022-10-30T16:13:55.196Z,99.90
2022-10-30T16:16:28.152Z,99.90
2022-10-30T16:19:00.603Z,99.90
2022-10-30T16:21:30.967Z,99.90
2022-10-30T16:24:01.673Z,99.90
2022-10-30T16:26:33.852Z,99.90
2022-10-30T16:29:09.849Z,99.90
2022-10-30T16:31:38.825Z,99.90
2022-10-30T16:34:12.330Z,99.90
2022-10-30T16:36:42.045Z,99.90
2022-10-30T16:39:15.161Z,99.90
2022-10-30T16:41:45.101Z,99.90
2022-10-30T16:44:20.162Z,99.90
2022-10-30T16:46:53.599Z,99.90
2022-10-30T16:49:24.280Z,99.90
2022-10-30T16:52:00.081Z,99.90
2022-10-30T16:54:32.239Z,99.90
2022-10-30T16:57:03.768Z,99.90
2022-10-30T16:59:38.340Z,99.90
2022-10-30T17:02:17.156Z,99.90
2022-10-30T17:04:52.478Z,99.90
2022-10-30T17:07:26.974Z,99.90
2022-10-30T17:09:58.557Z,99.90
2022-10-30T17:12:30.222Z,99.90
2022-10-30T17:15:12.888Z,99.90
2022-10-30T17:17:43.839Z,99.90
2022-10-30T17:20:30.996Z,99.90
2022-10-30T17:23:08.315Z,99.90
2022-10-30T17:25:38.391Z,99.90
2022-10-30T17:28:10.551Z,99.90
2022-10-30T17:30:43.230Z,99.90
2022-10-30T17:33:28.029Z,99.90
2022-10-30T17:35:56.119Z,99.90
2022-10-30T17:38:24.370Z,99.90
2022-10-30T17:40:52.564Z,99.90
2022-10-30T17:43:23.151Z,99.90
2022-10-30T17:45:51.474Z,99.90
2022-10-30T17:48:20.047Z,99.90
2022-10-30T17:50:48.116Z,99.90
2022-10-30T17:53:18.473Z,99.90
2022-10-30T17:55:51.677Z,99.90
2022-10-30T17:58:23.969Z,99.90
2022-10-30T18:00:52.844Z,99.90
2022-10-30T18:03:21.121Z,99.90
2022-10-30T18:05:50.079Z,99.90
2022-10-30T18:08:18.333Z,99.90
2022-10-30T18:10:46.395Z,99.90
2022-10-30T18:13:15.486Z,99.90
2022-10-30T18:15:47.224Z,99.90
2022-10-30T18:18:15.483Z,99.90
2022-10-30T18:20:43.643Z,99.90
2022-10-30T18:23:38.745Z,99.90
2022-10-30T18:26:07.787Z,99.90
2022-10-30T18:28:37.872Z,99.90
2022-10-30T18:31:07.703Z,99.90
2022-10-30T18:33:35.842Z,99.90
2022-10-30T18:36:03.869Z,99.90
2022-10-30T18:38:31.982Z,99.90
2022-10-30T18:41:00.031Z,99.90
2022-10-30T18:43:28.601Z,99.90
2022-10-30T18:45:56.897Z,99.90
2022-10-30T18:48:26.499Z,99.90
2022-10-30T18:50:54.808Z,99.90
2022-10-30T18:53:22.838Z,99.90
2022-10-30T18:55:51.338Z,99.90
2022-10-30T18:58:19.549Z,99.90
2022-10-30T19:01:13.208Z,99.90
2022-10-30T19:03:37.199Z,99.90
2022-10-30T19:06:05.405Z,99.90
2022-10-30T19:08:33.511Z,99.90
2022-10-30T19:11:01.573Z,99.90
2022-10-30T19:13:29.663Z,99.90
2022-10-30T19:16:00.612Z,99.90
2022-10-30T19:18:32.157Z,99.90
2022-10-30T19:21:08.027Z,99.90
2022-10-30T19:23:38.490Z,99.90
2022-10-30T19:26:06.804Z,99.90
2022-10-30T19:28:35.335Z,99.90
2022-10-30T19:31:03.467Z,99.90
2022-10-30T19:33:31.509Z,99.90
2022-10-30T19:36:02.260Z,99.90
2022-10-30T19:38:31.018Z,99.90
2022-10-30T19:40:59.228Z,99.90
2022-10-30T19:43:27.346Z,99.90
2022-10-30T19:45:56.873Z,99.90
2022-10-30T19:48:55.493Z,99.90
2022-10-30T19:51:15.503Z,99.90
2022-10-30T19:53:43.675Z,99.90
2022-10-30T19:56:12.698Z,99.90
2022-10-30T19:58:40.811Z,99.90
2022-10-30T20:01:08.935Z,99.90
2022-10-30T20:03:37.124Z,99.90
2022-10-30T20:06:05.488Z,99.90
2022-10-30T20:08:34.992Z,99.90
2022-10-30T20:11:03.052Z,99.90
2022-10-30T20:13:33.145Z,99.90
2022-10-30T20:16:04.732Z,99.90
2022-10-30T20:18:35.472Z,99.90
2022-10-30T20:21:05.535Z,99.90
2022-10-30T20:23:35.023Z,99.90
2022-10-30T20:26:05.708Z,99.90
2022-10-30T20:28:37.180Z,99.90
2022-10-30T20:31:06.123Z,99.90
2022-10-30T20:33:34.401Z,99.90
2022-10-30T20:36:02.518Z,99.90
2022-10-30T20:38:32.959Z,99.90
2022-10-30T20:41:04.319Z,99.90
2022-10-30T20:43:35.331Z,99.90
2022-10-30T20:46:04.998Z,99.90
2022-10-30T20:48:33.216Z,99.90
2022-10-30T20:51:02.522Z,99.90
2022-10-30T20:53:31.463Z,99.90
2022-10-30T20:55:59.627Z,99.90
2022-10-30T20:58:29.065Z,99.90
2022-10-30T21:00:58.164Z,99.90
2022-10-30T21:03:26.823Z,99.90
2022-10-30T21:05:57.137Z,99.90
2022-10-30T21:08:25.498Z,99.90
2022-10-30T21:10:53.684Z,99.90
2022-10-30T21:13:21.791Z,99.90
2022-10-30T21:15:51.471Z,99.90
2022-10-30T21:18:19.497Z,99.90
2022-10-30T21:20:47.580Z,99.90
2022-10-30T21:23:15.600Z,99.90
2022-10-30T21:25:43.614Z,99.90
2022-10-30T21:28:11.648Z,99.90
2022-10-30T21:30:39.768Z,99.90
2022-10-30T21:33:09.492Z,99.90
2022-10-30T21:35:37.622Z,99.90
2022-10-30T21:38:05.639Z,99.90
2022-10-30T21:40:34.236Z,99.90
2022-10-30T21:43:04.373Z,99.90
2022-10-30T21:45:32.965Z,99.90
2022-10-30T21:48:01.055Z,99.90
2022-10-30T21:50:30.498Z,99.90
2022-10-30T21:52:58.846Z,99.90
2022-10-30T21:55:27.141Z,99.90
2022-10-30T21:57:55.187Z,99.90
2022-10-30T22:00:23.339Z,99.90
2022-10-30T22:02:54.287Z,99.90
2022-10-30T22:05:22.390Z,99.90
2022-10-30T22:07:52.558Z,99.90
2022-10-30T22:10:21.708Z,99.90
2022-10-30T22:12:49.805Z,99.90
2022-10-30T22:15:17.950Z,99.90
2022-10-30T22:17:45.978Z,99.90
2022-10-30T22:20:13.961Z,99.90
2022-10-30T22:22:41.981Z,99.90
2022-10-30T22:25:11.412Z,99.90
2022-10-30T22:27:39.428Z,99.90
2022-10-30T22:30:08.630Z,99.90
2022-10-30T22:32:36.710Z,99.90
2022-10-30T22:35:04.881Z,99.90
2022-10-30T22:37:32.897Z,99.90
2022-10-30T22:40:00.943Z,99.90
2022-10-30T22:42:30.426Z,99.90
2022-10-30T22:44:58.415Z,99.90
2022-10-30T22:47:26.466Z,99.90
2022-10-30T22:49:54.592Z,99.90
2022-10-30T22:52:22.718Z,99.90
2022-10-30T22:54:50.748Z,99.90
2022-10-30T22:57:18.896Z,99.90
2022-10-30T22:59:48.381Z,99.90
2022-10-30T23:02:16.392Z,99.90
2022-10-30T23:04:44.419Z,99.90
2022-10-30T23:07:12.473Z,99.90
2022-10-30T23:09:40.596Z,99.90
2022-10-30T23:12:08.709Z,99.90
2022-10-30T23:14:37.019Z,99.90
2022-10-30T23:17:06.386Z,99.90
2022-10-30T23:19:34.402Z,99.90
2022-10-30T23:22:02.428Z,99.90
2022-10-30T23:24:30.581Z,99.90
2022-10-30T23:26:58.629Z,99.90
2022-10-30T23:29:26.687Z,99.90
2022-10-30T23:31:54.732Z,99.90
2022-10-30T23:34:24.142Z,99.90
2022-10-30T23:36:53.522Z,99.90
2022-10-30T23:39:23.286Z,99.90
2022-10-30T23:41:51.332Z,99.90
2022-10-30T23:44:19.468Z,99.90
2022-10-30T23:46:47.851Z,99.90
2022-10-30T23:49:15.964Z,99.90
2022-10-30T23:51:45.468Z,99.90
2022-10-30T23:54:13.468Z,99.90
2022-10-30T23:56:41.457Z,99.90
2022-10-30T23:59:10.659Z,99.90
